Time;durP1;ratioP1;P1;durP2;ratioP2;P2;SDS_P1;SDS_P2;PMS_P1;PMS_P2;Temp;Humidity;BMP_temperature;BMP_pressure;BME280_temperature;BME280_humidity;BME280_pressure;Samples;Min_cycle;Max_cycle;Signal;HPM_P1;HPM_P2
2021/03/24 00:01:40;;;;;;;28.25;19.70;;;6.50;99.90;;;;;;4857151;29;20183;-78
2021/03/24 00:04:07;;;;;;;27.70;19.70;;;6.50;99.90;;;;;;4858584;29;20235;-77
2021/03/24 00:06:34;;;;;;;32.20;19.77;;;6.50;99.90;;;;;;4852896;29;20739;-77
2021/03/24 00:09:06;;;;;;;33.72;21.23;;;6.50;99.90;;;;;;4852503;29;20218;-77
2021/03/24 00:11:32;;;;;;;30.52;21.40;;;6.50;99.90;;;;;;4858802;29;20218;-78
2021/03/24 00:13:59;;;;;;;26.52;18.98;;;6.50;99.90;;;;;;4838479;29;20223;-78
2021/03/24 00:16:25;;;;;;;31.83;19.30;;;6.40;99.90;;;;;;4839439;29;20241;-78
2021/03/24 00:18:52;;;;;;;27.35;20.17;;;6.40;99.90;;;;;;4858585;29;20501;-78
2021/03/24 00:21:18;;;;;;;31.80;21.65;;;6.20;99.90;;;;;;4858753;29;20279;-78
2021/03/24 00:23:45;;;;;;;31.02;19.70;;;6.20;99.90;;;;;;4842727;29;20285;-78
2021/03/24 00:26:12;;;;;;;30.05;19.42;;;6.20;99.90;;;;;;4857624;29;20211;-78
2021/03/24 00:28:38;;;;;;;28.83;21.90;;;6.10;99.90;;;;;;4834272;29;20235;-78
2021/03/24 00:31:05;;;;;;;30.17;21.45;;;6.10;99.90;;;;;;4842819;29;20670;-78
2021/03/24 00:33:32;;;;;;;36.67;21.95;;;6.20;99.90;;;;;;4858706;29;20687;-78
2021/03/24 00:35:58;;;;;;;28.95;19.52;;;6.10;99.90;;;;;;4857877;29;20266;-78
2021/03/24 00:38:25;;;;;;;27.95;20.52;;;6.10;99.90;;;;;;4853916;29;20267;-78
2021/03/24 00:40:57;;;;;;;30.48;23.55;;;6.00;99.90;;;;;;4858869;29;20195;-78
2021/03/24 00:43:25;;;;;;;31.98;20.88;;;5.90;99.90;;;;;;4858169;29;20321;-78
2021/03/24 00:45:51;;;;;;;34.08;19.95;;;5.80;99.90;;;;;;4842442;29;20574;-78
2021/03/24 00:48:27;;;;;;;35.38;20.98;;;5.70;99.90;;;;;;4858745;29;20243;-77
2021/03/24 00:50:54;;;;;;;30.75;21.70;;;5.70;99.90;;;;;;4853351;29;20565;-78
2021/03/24 00:53:22;;;;;;;32.33;21.83;;;5.60;99.90;;;;;;4837741;29;20300;-77
2021/03/24 00:55:48;;;;;;;28.70;20.35;;;5.60;99.90;;;;;;4858474;29;20623;-78
2021/03/24 00:58:16;;;;;;;26.55;16.75;;;5.60;99.90;;;;;;4855434;29;20280;-78
2021/03/24 01:00:44;;;;;;;24.92;18.85;;;5.50;99.90;;;;;;4839753;29;20789;-78
2021/03/24 01:03:11;;;;;;;27.77;18.17;;;5.40;99.90;;;;;;4858275;29;20254;-78
2021/03/24 01:05:46;;;;;;;26.25;16.88;;;5.30;99.90;;;;;;4858766;29;20211;-78
2021/03/24 01:08:20;;;;;;;24.52;16.60;;;5.30;99.90;;;;;;4857867;29;20230;-77
2021/03/24 01:10:47;;;;;;;19.45;16.60;;;5.20;99.90;;;;;;4858550;29;20184;-78
2021/03/24 01:13:15;;;;;;;26.63;17.23;;;5.10;99.90;;;;;;4859022;29;20219;-78
2021/03/24 01:15:42;;;;;;;25.05;19.10;;;5.00;99.90;;;;;;4861883;29;20309;-78
2021/03/24 01:18:10;;;;;;;30.33;18.45;;;4.90;99.90;;;;;;4860533;29;20247;-78
2021/03/24 01:20:39;;;;;;;25.00;17.77;;;4.80;99.90;;;;;;4861434;29;20191;-78
2021/03/24 01:23:05;;;;;;;25.90;17.42;;;4.70;99.90;;;;;;4860252;29;20317;-77
2021/03/24 01:25:33;;;;;;;30.08;20.00;;;4.80;99.90;;;;;;4861700;29;20215;-78
2021/03/24 01:28:00;;;;;;;27.92;17.83;;;4.80;99.90;;;;;;4859640;29;20639;-78
2021/03/24 01:30:30;;;;;;;28.33;19.23;;;4.70;99.90;;;;;;4862201;29;20282;-78
2021/03/24 01:32:57;;;;;;;27.67;17.42;;;4.70;99.90;;;;;;4861173;29;20249;-78
2021/03/24 01:35:25;;;;;;;28.88;19.75;;;4.70;99.90;;;;;;4860652;29;20306;-78
2021/03/24 01:37:52;;;;;;;29.80;19.75;;;4.60;99.90;;;;;;4858878;29;20264;-77
2021/03/24 01:40:28;;;;;;;27.38;18.83;;;4.60;99.90;;;;;;4860372;29;20611;-77
2021/03/24 01:42:58;;;;;;;30.13;18.00;;;4.60;99.90;;;;;;4859597;29;20231;-78
2021/03/24 01:45:24;;;;;;;26.92;18.40;;;4.60;99.90;;;;;;4841567;29;20272;-78
2021/03/24 01:47:53;;;;;;;30.88;17.58;;;4.60;99.90;;;;;;4860913;29;20219;-78
2021/03/24 01:50:28;;;;;;;27.90;18.00;;;4.70;99.90;;;;;;4861681;29;20263;-78
2021/03/24 01:53:09;;;;;;;30.35;18.75;;;4.70;99.90;;;;;;4860438;29;20750;-77
2021/03/24 01:55:36;;;;;;;28.30;17.40;;;4.50;99.90;;;;;;4860301;29;20211;-78
2021/03/24 01:58:03;;;;;;;33.45;18.60;;;4.40;99.90;;;;;;4841663;29;20215;-78
2021/03/24 02:00:38;;;;;;;26.25;16.95;;;4.40;99.90;;;;;;4857339;29;20729;-78
2021/03/24 02:03:05;;;;;;;31.80;16.60;;;4.30;99.90;;;;;;4860991;29;20234;-78
2021/03/24 02:05:32;;;;;;;27.15;19.52;;;4.20;99.90;;;;;;4860512;29;20263;-78
2021/03/24 02:08:12;;;;;;;28.45;18.67;;;4.20;99.90;;;;;;4859396;29;20250;-78
2021/03/24 02:10:49;;;;;;;27.65;18.48;;;4.10;99.90;;;;;;4861065;29;20619;-78
2021/03/24 02:13:42;;;;;;;28.45;17.85;;;4.10;99.90;;;;;;4860453;29;20322;-78
2021/03/24 02:16:27;;;;;;;33.55;20.33;;;4.10;99.90;;;;;;4844167;29;20504;-78
2021/03/24 02:18:56;;;;;;;28.17;18.73;;;4.00;99.90;;;;;;4843773;29;20238;-78
2021/03/24 02:21:34;;;;;;;27.48;19.33;;;4.00;99.90;;;;;;4859898;29;20242;-78
2021/03/24 02:24:29;;;;;;;30.17;19.80;;;4.00;99.90;;;;;;4859635;29;20587;-78
2021/03/24 02:27:07;;;;;;;29.50;18.65;;;4.10;99.90;;;;;;4850375;29;20622;-78
2021/03/24 02:29:37;;;;;;;31.13;19.83;;;4.00;99.90;;;;;;4851933;29;20372;-78
2021/03/24 02:32:05;;;;;;;31.30;19.13;;;4.00;99.90;;;;;;4855698;29;20241;-78
2021/03/24 02:34:33;;;;;;;38.45;23.02;;;4.00;99.90;;;;;;4860183;29;20223;-78
2021/03/24 02:37:01;;;;;;;31.02;19.20;;;4.00;99.90;;;;;;4855579;29;20274;-79
2021/03/24 02:39:30;;;;;;;30.20;19.15;;;4.00;99.90;;;;;;4859039;29;20244;-78
2021/03/24 02:42:00;;;;;;;30.50;19.30;;;4.00;99.90;;;;;;4846097;29;20269;-78
2021/03/24 02:44:27;;;;;;;29.63;19.98;;;3.90;99.90;;;;;;4859788;29;20336;-78
2021/03/24 02:46:55;;;;;;;27.73;18.27;;;3.90;99.90;;;;;;4860237;29;20201;-78
2021/03/24 02:49:25;;;;;;;31.40;19.15;;;3.80;99.90;;;;;;4843119;29;20219;-78
2021/03/24 02:51:52;;;;;;;28.73;18.50;;;3.80;99.90;;;;;;4860365;29;20251;-78
2021/03/24 02:54:21;;;;;;;34.33;19.15;;;3.90;99.90;;;;;;4841047;29;20224;-78
2021/03/24 02:56:49;;;;;;;27.00;18.25;;;3.90;99.90;;;;;;4858829;29;20302;-78
2021/03/24 02:59:17;;;;;;;31.77;18.60;;;3.80;99.90;;;;;;4842748;29;20717;-78
2021/03/24 03:02:05;;;;;;;26.88;18.15;;;3.80;99.90;;;;;;4858641;29;20218;-78
2021/03/24 03:04:43;;;;;;;32.42;19.55;;;3.70;99.90;;;;;;4857909;29;20227;-78
2021/03/24 03:07:24;;;;;;;27.77;18.98;;;3.80;99.90;;;;;;4857699;29;20203;-78
2021/03/24 03:10:22;;;;;;;29.55;17.35;;;3.80;99.90;;;;;;4854779;23;20227;-81
2021/03/24 03:13:03;;;;;;;27.48;17.15;;;3.70;99.90;;;;;;4840840;29;20223;-83
2021/03/24 03:15:41;;;;;;;25.40;18.45;;;3.60;99.90;;;;;;4851181;29;20372;-79
2021/03/24 03:18:32;;;;;;;24.33;16.92;;;3.50;99.90;;;;;;4841017;29;20751;-81
2021/03/24 03:21:05;;;;;;;30.08;17.20;;;3.40;99.90;;;;;;4806563;29;20203;-81
2021/03/24 03:23:32;;;;;;;29.23;18.75;;;3.40;99.90;;;;;;4823668;29;20226;-81
2021/03/24 03:26:16;;;;;;;29.05;17.45;;;3.40;99.90;;;;;;4818085;29;20598;-81
2021/03/24 03:28:46;;;;;;;30.77;16.30;;;3.40;99.90;;;;;;4823913;29;20252;-81
2021/03/24 03:31:20;;;;;;;26.63;17.83;;;3.40;99.90;;;;;;4841397;29;20192;-81
2021/03/24 03:33:49;;;;;;;35.13;19.83;;;3.50;99.90;;;;;;4840937;29;20777;-79
2021/03/24 03:36:17;;;;;;;28.45;17.17;;;3.40;99.90;;;;;;4823307;29;20216;-81
2021/03/24 03:38:45;;;;;;;32.40;18.27;;;3.40;99.90;;;;;;4840478;29;20276;-79
2021/03/24 03:41:15;;;;;;;30.38;17.73;;;3.40;99.90;;;;;;4841102;29;20188;-83
2021/03/24 03:43:50;;;;;;;29.63;18.55;;;3.30;99.90;;;;;;4822676;29;20223;-81
2021/03/24 03:46:21;;;;;;;30.10;18.25;;;3.30;99.90;;;;;;4820803;29;20211;-82
2021/03/24 03:48:48;;;;;;;31.98;17.95;;;3.30;99.90;;;;;;4819844;29;20311;-80
2021/03/24 03:51:42;;;;;;;29.95;18.40;;;3.30;99.90;;;;;;4824804;29;20192;-82
2021/03/24 03:54:42;;;;;;;25.83;16.50;;;3.20;99.90;;;;;;4822225;29;20606;-82
2021/03/24 03:57:19;;;;;;;27.02;16.60;;;3.20;99.90;;;;;;4833620;29;20212;-82
2021/03/24 04:00:08;;;;;;;27.83;16.73;;;3.10;99.90;;;;;;4853020;29;20257;-80
2021/03/24 04:02:43;;;;;;;32.58;17.33;;;3.20;99.90;;;;;;4839472;29;20361;-80
2021/03/24 04:05:16;;;;;;;23.50;14.00;;;3.10;99.90;;;;;;4833162;29;20572;-78
2021/03/24 04:07:47;;;;;;;31.50;17.15;;;3.00;99.90;;;;;;4821845;29;20232;-81
2021/03/24 04:10:14;;;;;;;24.17;16.35;;;3.00;99.90;;;;;;4824352;29;20212;-81
2021/03/24 04:12:41;;;;;;;29.10;15.38;;;3.00;99.90;;;;;;4839799;29;20227;-81
2021/03/24 04:15:16;;;;;;;28.75;17.88;;;3.00;99.90;;;;;;4852726;29;20276;-81
2021/03/24 04:17:50;;;;;;;22.92;15.32;;;3.10;99.90;;;;;;4840154;29;20248;-80
2021/03/24 04:20:20;;;;;;;23.77;16.00;;;3.20;99.90;;;;;;4841010;29;20213;-81
2021/03/24 04:22:50;;;;;;;25.95;15.75;;;3.20;99.90;;;;;;4823136;29;20319;-79
2021/03/24 04:25:33;;;;;;;26.63;17.08;;;3.10;99.90;;;;;;4824600;29;20247;-81
2021/03/24 04:28:03;;;;;;;24.13;15.93;;;3.00;99.90;;;;;;4823260;29;20590;-79
2021/03/24 04:30:35;;;;;;;29.70;15.73;;;3.00;99.90;;;;;;4840628;29;20654;-81
2021/03/24 04:33:02;;;;;;;27.30;15.82;;;3.00;99.90;;;;;;4820678;29;20224;-82
2021/03/24 04:35:29;;;;;;;29.25;17.08;;;3.00;99.90;;;;;;4839043;29;20276;-79
2021/03/24 04:37:59;;;;;;;27.42;17.60;;;3.10;99.90;;;;;;4823026;29;20655;-81
2021/03/24 04:40:47;;;;;;;30.83;18.40;;;3.30;99.90;;;;;;4840922;29;20187;-80
2021/03/24 04:43:36;;;;;;;32.30;19.50;;;3.50;99.90;;;;;;4823204;29;20238;-80
2021/03/24 04:46:22;;;;;;;32.20;20.20;;;3.60;99.90;;;;;;4834030;29;20262;-80
2021/03/24 04:48:56;;;;;;;29.30;19.95;;;3.70;99.90;;;;;;4841828;29;20280;-81
2021/03/24 04:51:25;;;;;;;30.65;18.50;;;3.80;99.90;;;;;;4843683;29;20651;-80
2021/03/24 04:54:07;;;;;;;31.60;18.40;;;3.90;99.90;;;;;;4826316;29;20231;-82
2021/03/24 04:56:37;;;;;;;31.00;19.42;;;3.80;99.90;;;;;;4844037;29;20203;-82
2021/03/24 04:59:04;;;;;;;31.55;17.02;;;3.80;99.90;;;;;;4843242;29;20257;-82
2021/03/24 05:01:43;;;;;;;32.55;19.00;;;3.70;99.90;;;;;;4826370;29;20188;-80
2021/03/24 05:04:23;;;;;;;28.65;18.55;;;3.80;99.90;;;;;;4843645;29;20250;-80
2021/03/24 05:07:00;;;;;;;33.90;19.20;;;3.80;99.90;;;;;;4843796;29;20184;-83
2021/03/24 05:09:27;;;;;;;35.95;21.00;;;3.90;99.90;;;;;;4847898;29;20585;-77
2021/03/24 05:12:16;;;;;;;33.45;21.00;;;3.90;99.90;;;;;;4843705;29;20204;-83
2021/03/24 05:14:57;;;;;;;27.50;17.55;;;3.90;99.90;;;;;;4829505;29;20291;-82
2021/03/24 05:17:34;;;;;;;25.17;16.70;;;3.80;99.90;;;;;;4843264;29;20224;-80
2021/03/24 05:20:07;;;;;;;29.05;16.95;;;3.70;99.90;;;;;;4817580;29;20554;-83
2021/03/24 05:22:38;;;;;;;26.13;16.83;;;3.70;99.90;;;;;;4825084;29;20212;-82
2021/03/24 05:25:18;;;;;;;27.92;15.45;;;3.60;99.90;;;;;;4830265;29;20216;-81
2021/03/24 05:27:57;;;;;;;27.77;17.15;;;3.40;99.90;;;;;;4842485;29;20253;-81
2021/03/24 05:30:29;;;;;;;24.08;14.98;;;3.30;99.90;;;;;;4843714;29;20640;-81
2021/03/24 05:33:27;;;;;;;27.13;15.30;;;3.30;99.90;;;;;;4826460;29;20232;-82
2021/03/24 05:35:56;;;;;;;27.60;15.68;;;3.20;99.90;;;;;;4827724;29;20219;-82
2021/03/24 05:38:25;;;;;;;24.42;16.13;;;3.10;99.90;;;;;;4825959;29;20689;-82
2021/03/24 05:41:16;;;;;;;25.52;16.45;;;3.10;99.90;;;;;;4843023;29;20219;-84
2021/03/24 05:44:14;;;;;;;30.20;16.35;;;3.10;99.90;;;;;;4831324;29;20222;-82
2021/03/24 05:47:14;;;;;;;28.88;18.40;;;3.10;99.90;;;;;;4843295;29;20184;-82
2021/03/24 05:50:15;;;;;;;32.35;19.98;;;3.10;99.90;;;;;;4843164;29;20215;-80
2021/03/24 05:52:48;;;;;;;31.73;21.30;;;3.20;99.90;;;;;;4825178;29;20227;-82
2021/03/24 05:55:46;;;;;;;34.03;19.35;;;3.20;99.90;;;;;;4842635;29;20220;-79
2021/03/24 05:58:26;;;;;;;35.28;19.52;;;3.30;99.90;;;;;;4842410;29;20276;-82
2021/03/24 06:00:52;;;;;;;32.38;18.90;;;3.40;99.90;;;;;;4825776;29;20184;-81
2021/03/24 06:03:37;;;;;;;34.00;19.55;;;3.40;99.90;;;;;;4842684;29;20235;-85
2021/03/24 06:06:19;;;;;;;30.40;17.30;;;3.50;99.90;;;;;;4819782;29;20220;-82
2021/03/24 06:08:46;;;;;;;26.95;16.63;;;3.50;99.90;;;;;;4842101;29;20555;-83
2021/03/24 06:11:39;;;;;;;29.52;18.38;;;3.50;99.90;;;;;;4825755;29;20288;-80
2021/03/24 06:14:26;;;;;;;26.42;16.48;;;3.40;99.90;;;;;;4842335;29;20224;-84
2021/03/24 06:17:17;;;;;;;23.65;16.60;;;3.40;99.90;;;;;;4842105;29;20203;-81
2021/03/24 06:19:57;;;;;;;28.48;17.15;;;3.40;99.90;;;;;;4840344;29;20690;-83
2021/03/24 06:22:33;;;;;;;29.95;16.60;;;3.50;99.90;;;;;;4824711;29;20206;-83
2021/03/24 06:25:24;;;;;;;33.72;18.33;;;3.50;99.90;;;;;;4840982;29;20215;-81
2021/03/24 06:28:16;;;;;;;28.98;17.55;;;3.50;99.90;;;;;;4841292;29;20243;-85
2021/03/24 06:31:15;;;;;;;27.15;16.70;;;3.60;99.90;;;;;;4824535;29;20671;-83
2021/03/24 06:34:15;;;;;;;28.27;15.85;;;3.70;99.90;;;;;;4824100;29;20595;-81
2021/03/24 06:37:09;;;;;;;25.40;17.00;;;3.70;99.90;;;;;;4841823;29;20191;-86
2021/03/24 06:40:14;;;;;;;29.73;17.40;;;3.80;99.90;;;;;;4839208;29;20223;-85
2021/03/24 06:43:01;;;;;;;27.90;17.92;;;3.90;99.90;;;;;;4840685;29;20268;-80
2021/03/24 06:45:46;;;;;;;26.02;17.00;;;4.10;99.90;;;;;;4841549;29;20295;-83
2021/03/24 06:48:25;;;;;;;24.95;15.93;;;4.30;99.90;;;;;;4840608;29;20243;-82
2021/03/24 06:51:06;;;;;;;30.48;18.08;;;4.30;99.90;;;;;;4823577;29;20199;-80
2021/03/24 06:54:03;;;;;;;26.80;18.60;;;4.60;99.90;;;;;;4824114;29;20223;-87
2021/03/24 06:56:52;;;;;;;32.67;19.13;;;4.80;99.90;;;;;;4809928;29;20193;-82
2021/03/24 06:59:31;;;;;;;29.95;19.17;;;5.10;99.90;;;;;;4840774;29;20223;-79
2021/03/24 07:02:25;;;;;;;27.58;19.10;;;5.30;99.90;;;;;;4836305;29;20592;-81
2021/03/24 07:05:37;;;;;;;32.70;20.00;;;5.50;99.90;;;;;;4824810;29;20327;-81
2021/03/24 07:08:24;;;;;;;35.95;20.90;;;5.70;99.90;;;;;;4816528;29;20235;-84
2021/03/24 07:11:18;;;;;;;32.45;21.35;;;6.00;99.90;;;;;;4840542;29;20699;-79
2021/03/24 07:14:11;;;;;;;36.60;22.45;;;6.20;99.90;;;;;;4841628;29;20227;-80
2021/03/24 07:17:06;;;;;;;31.35;21.67;;;6.40;99.90;;;;;;4842866;29;20266;-80
2021/03/24 07:19:42;;;;;;;37.80;20.38;;;6.70;99.90;;;;;;4839892;29;20236;-81
2021/03/24 07:22:17;;;;;;;40.20;23.35;;;6.90;99.90;;;;;;4849909;29;20191;-80
2021/03/24 07:25:11;;;;;;;35.13;22.52;;;7.10;99.90;;;;;;4842858;29;20219;-82
2021/03/24 07:28:23;;;;;;;34.40;21.30;;;7.30;99.90;;;;;;4826843;29;20297;-81
2021/03/24 07:31:08;;;;;;;33.67;22.40;;;7.60;99.90;;;;;;4843348;29;20198;-82
2021/03/24 07:34:06;;;;;;;31.15;22.45;;;7.90;99.90;;;;;;4826165;29;20224;-81
2021/03/24 07:37:30;;;;;;;34.42;24.13;;;8.00;99.90;;;;;;4838073;29;20200;-80
2021/03/24 07:40:29;;;;;;;34.42;22.52;;;8.20;99.90;;;;;;4788177;29;20216;-81
2021/03/24 07:43:20;;;;;;;39.50;24.25;;;8.30;99.90;;;;;;4802523;29;20224;-79
2021/03/24 07:45:56;;;;;;;39.13;23.60;;;8.60;99.90;;;;;;4841073;29;20223;-81
2021/03/24 07:48:30;;;;;;;35.65;23.85;;;8.70;99.90;;;;;;4822982;29;20220;-81
2021/03/24 07:51:11;;;;;;;33.30;21.80;;;8.90;99.90;;;;;;4840702;29;20720;-82
2021/03/24 07:53:55;;;;;;;36.10;23.13;;;9.00;99.90;;;;;;4839209;29;20274;-81
2021/03/24 07:56:42;;;;;;;36.63;22.57;;;9.30;99.90;;;;;;4838256;29;20460;-81
2021/03/24 07:59:17;;;;;;;31.93;21.77;;;9.40;99.90;;;;;;4838855;29;20564;-78
2021/03/24 08:02:02;;;;;;;33.63;23.63;;;9.50;99.90;;;;;;4840474;29;20436;-81
2021/03/24 08:04:45;;;;;;;38.60;23.80;;;9.80;99.90;;;;;;4824165;29;20846;-82
2021/03/24 08:07:34;;;;;;;34.13;24.10;;;10.00;99.90;;;;;;4843005;29;20535;-83
2021/03/24 08:10:22;;;;;;;38.17;22.93;;;10.10;99.90;;;;;;4821158;29;20458;-83
2021/03/24 08:13:03;;;;;;;35.57;24.10;;;10.20;99.90;;;;;;4813611;29;20493;-79
2021/03/24 08:16:02;;;;;;;48.40;24.37;;;10.40;99.90;;;;;;4823651;29;20509;-81
2021/03/24 08:18:41;;;;;;;26.83;20.97;;;11.00;99.90;;;;;;4823350;29;20477;-82
2021/03/24 08:21:20;;;;;;;33.27;23.10;;;11.20;99.20;;;;;;4824995;29;20444;-83
2021/03/24 08:24:18;;;;;;;34.70;22.83;;;11.30;98.80;;;;;;4838177;29;20486;-82
2021/03/24 08:26:50;;;;;;;33.30;23.70;;;11.70;97.10;;;;;;4847040;29;20451;-82
2021/03/24 08:29:23;;;;;;;32.00;23.07;;;11.90;94.00;;;;;;4846969;29;20560;-81
2021/03/24 08:32:11;;;;;;;41.20;25.00;;;11.90;94.30;;;;;;4822975;29;20449;-82
2021/03/24 08:34:40;;;;;;;37.30;22.53;;;12.00;95.00;;;;;;4815234;29;20905;-82
2021/03/24 08:37:41;;;;;;;35.30;22.93;;;12.10;93.70;;;;;;4848947;29;20460;-82
2021/03/24 08:40:26;;;;;;;33.33;22.17;;;12.30;92.80;;;;;;4813984;29;20941;-81
2021/03/24 08:43:26;;;;;;;32.70;21.53;;;12.20;92.80;;;;;;4829240;29;20484;-81
2021/03/24 08:46:11;;;;;;;33.57;22.43;;;12.60;91.20;;;;;;4840155;29;20528;-81
2021/03/24 08:48:55;;;;;;;36.20;22.90;;;13.00;91.00;;;;;;4832366;29;20465;-80
2021/03/24 08:51:51;;;;;;;33.33;23.80;;;13.00;89.60;;;;;;4840114;29;20905;-81
2021/03/24 08:54:38;;;;;;;31.97;22.63;;;12.90;90.40;;;;;;4830192;29;20476;-81
2021/03/24 08:57:19;;;;;;;34.90;22.70;;;13.10;88.40;;;;;;4847980;29;20853;-81
2021/03/24 08:59:55;;;;;;;33.67;24.47;;;;;;;;;;4846804;29;20468;-81
2021/03/24 09:02:47;;;;;;;31.20;24.50;;;13.60;82.50;;;;;;4814878;29;20440;-81
2021/03/24 09:05:50;;;;;;;31.63;23.13;;;13.70;83.70;;;;;;4846554;29;20464;-81
2021/03/24 09:08:46;;;;;;;37.97;24.10;;;14.00;79.90;;;;;;4806260;29;20821;-81
2021/03/24 09:11:38;;;;;;;37.30;22.13;;;13.90;82.30;;;;;;4840361;29;20461;-81
2021/03/24 09:14:24;;;;;;;38.20;23.80;;;14.10;82.00;;;;;;4838276;29;20492;-80
2021/03/24 09:17:12;;;;;;;38.63;24.57;;;14.20;76.30;;;;;;4833451;29;20512;-83
2021/03/24 09:20:17;;;;;;;39.53;25.23;;;14.40;74.20;;;;;;4818236;29;20938;-81
2021/03/24 09:22:53;;;;;;;36.80;23.17;;;14.20;80.70;;;;;;4854836;29;20493;-81
2021/03/24 09:25:28;;;;;;;33.30;24.37;;;14.20;81.20;;;;;;4832038;29;20843;-81
2021/03/24 09:28:03;;;;;;;35.60;23.93;;;14.20;80.50;;;;;;4831220;29;20481;-81
2021/03/24 09:30:38;;;;;;;37.53;24.10;;;13.90;81.00;;;;;;4849313;29;20485;-80
2021/03/24 09:33:39;;;;;;;38.40;23.37;;;14.00;75.90;;;;;;4830012;29;20478;-81
2021/03/24 09:36:06;;;;;;;35.90;23.33;;;14.00;73.80;;;;;;4829535;29;20525;-83
2021/03/24 09:38:36;;;;;;;32.20;23.87;;;13.90;73.70;;;;;;4845556;29;20483;-82
2021/03/24 09:41:18;;;;;;;37.40;24.00;;;13.80;76.70;;;;;;4829190;29;20493;-81
2021/03/24 09:43:53;;;;;;;35.57;22.57;;;14.00;75.30;;;;;;4843770;29;20500;-82
2021/03/24 09:46:36;;;;;;;33.03;22.90;;;14.20;71.00;;;;;;4818465;29;20477;-82
2021/03/24 09:49:17;;;;;;;32.50;23.10;;;14.10;74.30;;;;;;4823223;29;20516;-83
2021/03/24 09:51:54;;;;;;;36.00;23.93;;;14.30;70.70;;;;;;4839526;29;20445;-80
2021/03/24 09:54:27;;;;;;;33.83;22.93;;;14.30;69.10;;;;;;4826181;29;20484;-82
2021/03/24 09:57:06;;;;;;;40.40;23.60;;;14.60;70.30;;;;;;4829622;29;20793;-81
2021/03/24 09:59:45;;;;;;;33.00;23.97;;;14.40;70.40;;;;;;4845665;29;20557;-82
2021/03/24 10:02:29;;;;;;;31.93;21.70;;;14.30;71.00;;;;;;4824859;29;20451;-81
2021/03/24 10:05:05;;;;;;;34.30;22.30;;;14.40;70.20;;;;;;4809995;29;20538;-82
2021/03/24 10:07:38;;;;;;;33.03;22.47;;;14.50;70.50;;;;;;4836852;29;20507;-81
2021/03/24 10:10:24;;;;;;;34.00;23.50;;;14.80;73.10;;;;;;4846197;29;20445;-82
2021/03/24 10:12:55;;;;;;;40.57;25.20;;;14.90;74.50;;;;;;4822864;29;20473;-82
2021/03/24 10:15:37;;;;;;;41.47;26.00;;;15.00;76.40;;;;;;4843308;29;20573;-82
2021/03/24 10:18:17;;;;;;;44.97;28.57;;;15.20;72.00;;;;;;4844896;29;20484;-82
2021/03/24 10:21:13;;;;;;;41.40;28.63;;;15.10;76.60;;;;;;4844802;29;20441;-81
2021/03/24 10:23:47;;;;;;;37.47;26.27;;;14.90;75.60;;;;;;4842871;29;20546;-82
2021/03/24 10:26:23;;;;;;;46.97;27.43;;;14.80;74.50;;;;;;4825336;29;20976;-82
2021/03/24 10:28:55;;;;;;;44.30;28.03;;;14.80;76.50;;;;;;4840455;29;20823;-82
2021/03/24 10:31:26;;;;;;;44.57;27.73;;;14.90;75.20;;;;;;4842464;29;20496;-82
2021/03/24 10:34:21;;;;;;;43.33;27.83;;;15.00;74.20;;;;;;4821074;29;20556;-80
2021/03/24 10:36:56;;;;;;;41.43;26.97;;;14.90;72.10;;;;;;4845854;29;20463;-83
2021/03/24 10:39:28;;;;;;;40.90;26.03;;;14.80;76.20;;;;;;4823187;29;20465;-83
2021/03/24 10:42:14;;;;;;;41.50;25.30;;;14.70;78.30;;;;;;4826660;29;20429;-80
2021/03/24 10:44:47;;;;;;;42.20;27.23;;;14.60;78.30;;;;;;4856825;29;20506;-84
2021/03/24 10:47:20;;;;;;;40.20;25.97;;;14.50;76.60;;;;;;4830509;29;20452;-85
2021/03/24 10:50:04;;;;;;;38.03;24.33;;;14.60;75.80;;;;;;4842342;29;20459;-82
2021/03/24 10:52:41;;;;;;;39.33;26.07;;;14.70;75.00;;;;;;4841636;29;20474;-79
2021/03/24 10:55:17;;;;;;;43.23;25.80;;;14.70;78.70;;;;;;4825612;29;20476;-80
2021/03/24 10:58:07;;;;;;;44.60;27.33;;;14.70;84.60;;;;;;4821677;29;20472;-80
2021/03/24 11:00:48;;;;;;;41.30;26.10;;;14.70;87.90;;;;;;4842160;29;20467;-81
2021/03/24 11:03:18;;;;;;;42.50;26.40;;;14.70;81.70;;;;;;4812929;29;20469;-81
2021/03/24 11:05:59;;;;;;;40.17;25.07;;;14.70;78.10;;;;;;4824292;29;21054;-80
2021/03/24 11:08:56;;;;;;;36.93;25.40;;;14.60;76.80;;;;;;4822804;29;20484;-81
2021/03/24 11:11:35;;;;;;;43.57;26.10;;;14.70;79.30;;;;;;4814092;29;20439;-81
2021/03/24 11:14:11;;;;;;;38.90;25.17;;;14.70;77.00;;;;;;4823677;29;20472;-82
2021/03/24 11:16:56;;;;;;;40.80;25.50;;;14.80;75.70;;;;;;4825621;29;20452;-82
2021/03/24 11:19:37;;;;;;;44.93;25.03;;;14.80;78.80;;;;;;4841485;29;20500;-78
2021/03/24 11:22:42;;;;;;;46.87;27.13;;;14.90;75.40;;;;;;4841905;29;20443;-79
2021/03/24 11:25:37;;;;;;;37.30;24.70;;;14.90;75.90;;;;;;4820692;29;20473;-82
2021/03/24 11:28:24;;;;;;;39.53;25.47;;;15.00;75.80;;;;;;4812187;29;21068;-80
2021/03/24 11:31:12;;;;;;;45.57;25.87;;;15.00;76.50;;;;;;4830666;29;20439;-84
2021/03/24 11:34:09;;;;;;;36.20;24.10;;;15.00;75.30;;;;;;4840485;29;20475;-80
2021/03/24 11:36:40;;;;;;;38.23;23.40;;;14.90;76.60;;;;;;4841298;29;20833;-83
2021/03/24 11:39:17;;;;;;;43.17;25.90;;;15.00;74.20;;;;;;4807751;29;20574;-84
2021/03/24 11:41:44;;;;;;;35.70;24.50;;;15.00;70.20;;;;;;4824418;29;20794;-80
2021/03/24 11:44:15;;;;;;;38.30;24.90;;;15.00;71.40;;;;;;4823761;29;20491;-81
2021/03/24 11:46:42;;;;;;;37.53;23.97;;;15.00;71.00;;;;;;4825097;29;20546;-81
2021/03/24 11:49:15;;;;;;;45.70;24.03;;;15.10;74.20;;;;;;4832505;29;20477;-83
2021/03/24 11:52:11;;;;;;;32.57;22.77;;;15.20;70.00;;;;;;4825944;29;21043;-82
2021/03/24 11:54:46;;;;;;;42.90;24.27;;;15.30;78.00;;;;;;4823412;29;20485;-81
2021/03/24 11:57:50;;;;;;;40.17;24.47;;;15.20;78.00;;;;;;4826883;29;20505;-81
2021/03/24 12:00:25;;;;;;;37.23;25.50;;;15.10;76.40;;;;;;4844232;29;20485;-82
2021/03/24 12:03:16;;;;;;;34.63;23.30;;;15.00;76.30;;;;;;4825532;29;20901;-81
2021/03/24 12:06:31;;;;;;;33.03;23.43;;;14.90;76.80;;;;;;4810533;29;20469;-82
2021/03/24 12:09:09;;;;;;;30.00;21.80;;;14.90;75.20;;;;;;4821050;29;20475;-81
2021/03/24 12:11:39;;;;;;;36.83;23.67;;;14.80;75.20;;;;;;4845240;29;20989;-81
2021/03/24 12:14:24;;;;;;;31.33;21.03;;;14.80;75.40;;;;;;4831839;29;20492;-81
2021/03/24 12:16:55;;;;;;;28.77;20.97;;;14.80;75.30;;;;;;4826498;29;20474;-81
2021/03/24 12:19:41;;;;;;;31.87;20.33;;;14.70;75.70;;;;;;4842765;29;20533;-80
2021/03/24 12:22:20;;;;;;;33.30;22.53;;;14.90;70.60;;;;;;4844159;29;20460;-81
2021/03/24 12:25:19;;;;;;;31.80;21.97;;;15.00;71.50;;;;;;4842091;29;20468;-80
2021/03/24 12:27:52;;;;;;;29.80;20.30;;;15.00;73.40;;;;;;4843483;29;20801;-80
2021/03/24 12:30:37;;;;;;;29.60;21.17;;;15.10;71.50;;;;;;4827035;29;20450;-82
2021/03/24 12:33:21;;;;;;;26.70;18.27;;;15.00;71.60;;;;;;4822852;29;20508;-81
2021/03/24 12:36:05;;;;;;;29.00;18.63;;;15.00;71.80;;;;;;4806676;29;20542;-82
2021/03/24 12:38:42;;;;;;;31.87;19.47;;;15.00;72.60;;;;;;4833301;29;21034;-81
2021/03/24 12:41:08;;;;;;;31.57;18.00;;;15.20;69.50;;;;;;4827935;29;20436;-81
2021/03/24 12:43:38;;;;;;;31.07;18.60;;;15.30;73.20;;;;;;4846602;29;20987;-81
2021/03/24 12:46:11;;;;;;;33.67;19.43;;;15.20;72.10;;;;;;4828396;29;20479;-81
2021/03/24 12:48:53;;;;;;;22.07;16.00;;;15.20;72.60;;;;;;4845811;29;20481;-82
2021/03/24 12:51:36;;;;;;;23.17;16.50;;;15.20;72.00;;;;;;4861958;29;20543;-81
2021/03/24 12:54:08;;;;;;;23.40;15.60;;;15.30;69.70;;;;;;4851187;29;20476;-81
2021/03/24 12:57:04;;;;;;;24.80;15.50;;;15.40;70.50;;;;;;4828934;29;20440;-81
2021/03/24 13:00:02;;;;;;;20.50;13.77;;;15.30;71.10;;;;;;4830955;29;20529;-81
2021/03/24 13:02:40;;;;;;;25.27;14.53;;;15.20;73.90;;;;;;4841413;29;20433;-81
2021/03/24 13:05:36;;;;;;;19.70;15.00;;;15.10;73.80;;;;;;4841005;29;20455;-81
2021/03/24 13:08:32;;;;;;;25.47;14.80;;;15.20;72.10;;;;;;4832988;29;20478;-81
2021/03/24 13:11:32;;;;;;;23.13;14.80;;;15.30;70.70;;;;;;4797863;29;20446;-81
2021/03/24 13:14:35;;;;;;;19.80;13.80;;;15.40;67.80;;;;;;4835213;29;21079;-80
2021/03/24 13:17:13;;;;;;;27.20;14.97;;;15.50;67.60;;;;;;4829215;29;20836;-81
2021/03/24 13:20:09;;;;;;;20.53;12.37;;;15.50;69.70;;;;;;4830657;29;20521;-82
2021/03/24 13:22:59;;;;;;;18.30;12.90;;;15.40;70.30;;;;;;4845100;29;20429;-79
2021/03/24 13:25:52;;;;;;;16.27;10.50;;;15.50;68.20;;;;;;4825421;29;20458;-79
2021/03/24 13:28:32;;;;;;;14.80;9.83;;;15.50;74.10;;;;;;4830989;29;20487;-81
2021/03/24 13:31:02;;;;;;;15.70;9.40;;;15.50;72.60;;;;;;4854522;29;20472;-81
2021/03/24 13:33:31;;;;;;;18.30;10.40;;;15.70;64.50;;;;;;4813006;29;20469;-80
2021/03/24 13:36:13;;;;;;;21.13;10.47;;;15.90;74.40;;;;;;4842189;29;20480;-82